sensor_id;sensor_type;location;lat;lon;timestamp;pressure;altitude;pressure_sealevel;temperature;humidity
39949;BME280;29070;48.102;-1.652;2023-04-21T00:04:45;100986.47;;;8.89;53.53
39949;BME280;29070;48.102;-1.652;2023-04-21T00:09:45;100982.19;;;8.88;53.68
39949;BME280;29070;48.102;-1.652;2023-04-21T00:14:46;100978.84;;;8.80;54.20
39949;BME280;29070;48.102;-1.652;2023-04-21T00:19:46;100965.84;;;8.71;54.21
39949;BME280;29070;48.102;-1.652;2023-04-21T00:24:47;100966.19;;;8.68;54.92
39949;BME280;29070;48.102;-1.652;2023-04-21T00:29:47;100960.81;;;8.62;54.73
39949;BME280;29070;48.102;-1.652;2023-04-21T00:34:47;100957.56;;;8.59;54.75
39949;BME280;29070;48.102;-1.652;2023-04-21T00:39:47;100951.25;;;8.54;55.09
39949;BME280;29070;48.102;-1.652;2023-04-21T00:44:48;100932.47;;;8.50;55.48
39949;BME280;29070;48.102;-1.652;2023-04-21T00:49:48;100931.06;;;8.39;56.01
39949;BME280;29070;48.102;-1.652;2023-04-21T00:54:49;100921.47;;;8.32;56.11
39949;BME280;29070;48.102;-1.652;2023-04-21T00:59:49;100917.47;;;8.21;56.16
39949;BME280;29070;48.102;-1.652;2023-04-21T01:04:51;100904.44;;;8.13;56.22
39949;BME280;29070;48.102;-1.652;2023-04-21T01:09:51;100902.63;;;8.13;56.81
39949;BME280;29070;48.102;-1.652;2023-04-21T01:14:51;100903.00;;;8.10;56.96
39949;BME280;29070;48.102;-1.652;2023-04-21T01:19:54;100900.38;;;8.10;57.27
39949;BME280;29070;48.102;-1.652;2023-04-21T01:24:55;100898.75;;;8.09;57.58
39949;BME280;29070;48.102;-1.652;2023-04-21T01:29:56;100889.81;;;8.04;57.35
39949;BME280;29070;48.102;-1.652;2023-04-21T01:34:57;100896.19;;;8.01;57.78
39949;BME280;29070;48.102;-1.652;2023-04-21T01:40:01;100899.03;;;7.91;57.97
39949;BME280;29070;48.102;-1.652;2023-04-21T01:45:02;100899.91;;;7.83;57.76
39949;BME280;29070;48.102;-1.652;2023-04-21T01:50:03;100899.53;;;7.87;58.23
39949;BME280;29070;48.102;-1.652;2023-04-21T01:55:03;100899.91;;;7.83;58.40
39949;BME280;29070;48.102;-1.652;2023-04-21T02:00:04;100900.72;;;7.84;58.78
39949;BME280;29070;48.102;-1.652;2023-04-21T02:05:06;100892.41;;;7.80;58.60
39949;BME280;29070;48.102;-1.652;2023-04-21T02:10:07;100884.09;;;7.77;58.74
39949;BME280;29070;48.102;-1.652;2023-04-21T02:15:07;100876.66;;;7.66;58.94
39949;BME280;29070;48.102;-1.652;2023-04-21T02:20:08;100872.56;;;7.63;59.18
39949;BME280;29070;48.102;-1.652;2023-04-21T02:25:09;100878.78;;;7.62;59.22
39949;BME280;29070;48.102;-1.652;2023-04-21T02:30:09;100867.88;;;7.58;59.63
39949;BME280;29070;48.102;-1.652;2023-04-21T02:35:10;100864.97;;;7.53;59.72
39949;BME280;29070;48.102;-1.652;2023-04-21T02:40:11;100859.59;;;7.47;59.97
39949;BME280;29070;48.102;-1.652;2023-04-21T02:45:11;100861.41;;;7.46;60.29
39949;BME280;29070;48.102;-1.652;2023-04-21T02:50:12;100851.28;;;7.43;60.18
39949;BME280;29070;48.102;-1.652;2023-04-21T02:55:13;100853.25;;;7.41;60.30
39949;BME280;29070;48.102;-1.652;2023-04-21T03:00:14;100853.94;;;7.35;60.59
39949;BME280;29070;48.102;-1.652;2023-04-21T03:05:14;100848.41;;;7.30;61.03
39949;BME280;29070;48.102;-1.652;2023-04-21T03:10:15;100844.19;;;7.29;61.04
39949;BME280;29070;48.102;-1.652;2023-04-21T03:15:16;100833.41;;;7.23;61.16
39949;BME280;29070;48.102;-1.652;2023-04-21T03:20:16;100846.81;;;7.20;61.21
39949;BME280;29070;48.102;-1.652;2023-04-21T03:25:17;100837.69;;;7.16;61.42
39949;BME280;29070;48.102;-1.652;2023-04-21T03:30:17;100839.66;;;7.14;61.76
39949;BME280;29070;48.102;-1.652;2023-04-21T03:35:17;100832.00;;;7.13;61.89
39949;BME280;29070;48.102;-1.652;2023-04-21T03:40:18;100819.44;;;7.08;61.82
39949;BME280;29070;48.102;-1.652;2023-04-21T03:45:18;100821.56;;;7.04;62.05
39949;BME280;29070;48.102;-1.652;2023-04-21T03:50:21;100823.06;;;6.99;61.98
39949;BME280;29070;48.102;-1.652;2023-04-21T03:55:22;100815.94;;;6.93;62.61
39949;BME280;29070;48.102;-1.652;2023-04-21T04:00:22;100814.47;;;6.90;62.67
39949;BME280;29070;48.102;-1.652;2023-04-21T04:05:23;100817.41;;;6.87;62.42
39949;BME280;29070;48.102;-1.652;2023-04-21T04:10:23;100820.19;;;6.85;62.89
39949;BME280;29070;48.102;-1.652;2023-04-21T04:15:25;100816.28;;;6.81;63.05
39949;BME280;29070;48.102;-1.652;2023-04-21T04:20:26;100812.69;;;6.82;62.94
39949;BME280;29070;48.102;-1.652;2023-04-21T04:25:26;100814.19;;;6.77;63.36
39949;BME280;29070;48.102;-1.652;2023-04-21T04:30:27;100821.38;;;6.75;63.15
39949;BME280;29070;48.102;-1.652;2023-04-21T04:35:28;100814.03;;;6.70;63.32
39949;BME280;29070;48.102;-1.652;2023-04-21T04:40:28;100803.28;;;6.65;63.75
39949;BME280;29070;48.102;-1.652;2023-04-21T04:45:29;100811.78;;;6.59;63.85
39949;BME280;29070;48.102;-1.652;2023-04-21T04:50:32;100801.69;;;6.56;63.66
39949;BME280;29070;48.102;-1.652;2023-04-21T04:55:32;100810.50;;;6.55;64.12
39949;BME280;29070;48.102;-1.652;2023-04-21T05:00:32;100821.91;;;6.54;64.00
39949;BME280;29070;48.102;-1.652;2023-04-21T05:05:33;100818.81;;;6.50;63.99
39949;BME280;29070;48.102;-1.652;2023-04-21T05:10:33;100810.34;;;6.40;63.77
39949;BME280;29070;48.102;-1.652;2023-04-21T05:15:34;100807.88;;;6.38;64.21
39949;BME280;29070;48.102;-1.652;2023-04-21T05:20:34;100812.47;;;6.36;64.34
39949;BME280;29070;48.102;-1.652;2023-04-21T05:25:35;100816.88;;;6.36;64.57
39949;BME280;29070;48.102;-1.652;2023-04-21T05:30:37;100814.91;;;6.38;64.94
39949;BME280;29070;48.102;-1.652;2023-04-21T05:35:37;100819.97;;;6.39;64.84
39949;BME280;29070;48.102;-1.652;2023-04-21T05:40:38;100822.25;;;6.34;65.09
39949;BME280;29070;48.102;-1.652;2023-04-21T05:45:39;100811.16;;;6.32;65.16
39949;BME280;29070;48.102;-1.652;2023-04-21T05:50:40;100818.34;;;6.30;64.74
39949;BME280;29070;48.102;-1.652;2023-04-21T05:55:40;100816.06;;;6.27;65.17
39949;BME280;29070;48.102;-1.652;2023-04-21T06:00:40;100813.13;;;6.30;65.21
39949;BME280;29070;48.102;-1.652;2023-04-21T06:05:41;100813.78;;;6.32;65.45
39949;BME280;29070;48.102;-1.652;2023-04-21T06:10:41;100808.09;;;6.37;65.51
39949;BME280;29070;48.102;-1.652;2023-04-21T06:15:41;100815.88;;;6.45;65.72
39949;BME280;29070;48.102;-1.652;2023-04-21T06:20:49;100808.22;;;6.52;66.16
39949;BME280;29070;48.102;-1.652;2023-04-21T06:26:02;100806.09;;;6.55;66.25
39949;BME280;29070;48.102;-1.652;2023-04-21T06:31:04;100802.69;;;6.55;65.97
39949;BME280;29070;48.102;-1.652;2023-04-21T06:36:04;100805.41;;;6.61;65.98
39949;BME280;29070;48.102;-1.652;2023-04-21T06:41:05;100801.03;;;6.62;66.01
39949;BME280;29070;48.102;-1.652;2023-04-21T06:46:06;100795.94;;;6.68;65.87
39949;BME280;29070;48.102;-1.652;2023-04-21T06:51:06;100796.72;;;6.77;66.21
39949;BME280;29070;48.102;-1.652;2023-04-21T06:56:06;100776.78;;;6.93;66.61
39949;BME280;29070;48.102;-1.652;2023-04-21T07:01:07;100786.47;;;7.15;66.75
39949;BME280;29070;48.102;-1.652;2023-04-21T07:06:07;100775.97;;;7.32;66.88
39949;BME280;29070;48.102;-1.652;2023-04-21T07:11:07;100779.56;;;7.54;67.17
39949;BME280;29070;48.102;-1.652;2023-04-21T07:16:08;100784.47;;;7.80;67.21
39949;BME280;29070;48.102;-1.652;2023-04-21T07:21:08;100783.59;;;8.02;66.77
39949;BME280;29070;48.102;-1.652;2023-04-21T07:26:09;100770.31;;;8.27;66.92
39949;BME280;29070;48.102;-1.652;2023-04-21T07:31:09;100771.09;;;8.51;67.02
39949;BME280;29070;48.102;-1.652;2023-04-21T07:36:10;100770.03;;;8.75;66.53
39949;BME280;29070;48.102;-1.652;2023-04-21T07:41:10;100761.31;;;9.04;66.52
39949;BME280;29070;48.102;-1.652;2023-04-21T07:46:11;100758.00;;;9.32;66.36
39949;BME280;29070;48.102;-1.652;2023-04-21T07:51:12;100758.03;;;9.53;65.90
39949;BME280;29070;48.102;-1.652;2023-04-21T07:56:14;100758.00;;;9.75;65.67
39949;BME280;29070;48.102;-1.652;2023-04-21T08:01:15;100759.41;;;9.99;65.26
39949;BME280;29070;48.102;-1.652;2023-04-21T08:06:16;100767.28;;;10.27;64.91
39949;BME280;29070;48.102;-1.652;2023-04-21T08:11:16;100759.19;;;10.51;64.52
39949;BME280;29070;48.102;-1.652;2023-04-21T08:16:17;100763.97;;;10.82;64.35
39949;BME280;29070;48.102;-1.652;2023-04-21T08:21:17;100758.00;;;11.01;63.41
39949;BME280;29070;48.102;-1.652;2023-04-21T08:26:17;100751.59;;;11.24;63.56
39949;BME280;29070;48.102;-1.652;2023-04-21T08:31:21;100743.78;;;11.51;63.02
39949;BME280;29070;48.102;-1.652;2023-04-21T08:36:21;100748.06;;;11.72;62.16
39949;BME280;29070;48.102;-1.652;2023-04-21T08:41:23;100744.63;;;12.05;62.22
39949;BME280;29070;48.102;-1.652;2023-04-21T08:46:24;100747.22;;;12.25;61.47
39949;BME280;29070;48.102;-1.652;2023-04-21T08:51:27;100727.34;;;12.49;60.48
39949;BME280;29070;48.102;-1.652;2023-04-21T08:56:27;100729.06;;;12.75;60.13
39949;BME280;29070;48.102;-1.652;2023-04-21T09:01:29;100717.28;;;12.84;59.28
39949;BME280;29070;48.102;-1.652;2023-04-21T09:06:39;100717.78;;;13.06;57.52
39949;BME280;29070;48.102;-1.652;2023-04-21T09:11:42;100721.72;;;13.29;58.39
39949;BME280;29070;48.102;-1.652;2023-04-21T09:16:42;100725.25;;;13.48;57.63
39949;BME280;29070;48.102;-1.652;2023-04-21T09:21:43;100713.91;;;13.72;57.42
39949;BME280;29070;48.102;-1.652;2023-04-21T09:26:43;100709.16;;;13.81;56.02
39949;BME280;29070;48.102;-1.652;2023-04-21T09:31:43;100704.81;;;13.68;55.32
39949;BME280;29070;48.102;-1.652;2023-04-21T09:36:44;100711.59;;;13.83;55.10
39949;BME280;29070;48.102;-1.652;2023-04-21T09:41:45;100704.13;;;13.98;54.99
39949;BME280;29070;48.102;-1.652;2023-04-21T09:46:47;100692.28;;;14.44;54.90
39949;BME280;29070;48.102;-1.652;2023-04-21T09:51:50;100693.69;;;14.65;54.01
39949;BME280;29070;48.102;-1.652;2023-04-21T09:56:52;100689.78;;;14.86;53.10
39949;BME280;29070;48.102;-1.652;2023-04-21T10:01:54;100683.91;;;14.66;51.50
39949;BME280;29070;48.102;-1.652;2023-04-21T10:06:57;100683.03;;;14.72;51.74
39949;BME280;29070;48.102;-1.652;2023-04-21T10:12:00;100678.69;;;15.08;51.37
39949;BME280;29070;48.102;-1.652;2023-04-21T10:17:06;100671.47;;;15.15;50.29
39949;BME280;29070;48.102;-1.652;2023-04-21T10:22:07;100670.28;;;15.11;50.40
39949;BME280;29070;48.102;-1.652;2023-04-21T10:27:30;100659.91;;;14.98;48.87
39949;BME280;29070;48.102;-1.652;2023-04-21T10:32:40;100653.66;;;14.80;48.83
39949;BME280;29070;48.102;-1.652;2023-04-21T10:37:41;100646.84;;;14.73;49.39
39949;BME280;29070;48.102;-1.652;2023-04-21T10:42:42;100645.50;;;14.82;49.06
39949;BME280;29070;48.102;-1.652;2023-04-21T10:47:45;100640.34;;;14.87;48.86
39949;BME280;29070;48.102;-1.652;2023-04-21T10:57:59;100629.75;;;15.41;48.34
39949;BME280;29070;48.102;-1.652;2023-04-21T11:03:02;100620.47;;;15.62;47.42
39949;BME280;29070;48.102;-1.652;2023-04-21T11:13:04;100623.66;;;15.29;46.84
39949;BME280;29070;48.102;-1.652;2023-04-21T11:18:06;100617.69;;;15.45;46.77
39949;BME280;29070;48.102;-1.652;2023-04-21T11:23:08;100603.88;;;15.67;46.77
39949;BME280;29070;48.102;-1.652;2023-04-21T11:28:09;100594.00;;;15.86;46.36
39949;BME280;29070;48.102;-1.652;2023-04-21T11:33:09;100593.25;;;16.14;45.99
39949;BME280;29070;48.102;-1.652;2023-04-21T11:38:09;100585.66;;;16.06;45.11
39949;BME280;29070;48.102;-1.652;2023-04-21T11:43:12;100585.66;;;16.06;44.83
39949;BME280;29070;48.102;-1.652;2023-04-21T11:48:14;100571.59;;;16.17;44.48
39949;BME280;29070;48.102;-1.652;2023-04-21T11:53:14;100577.63;;;16.00;43.80
39949;BME280;29070;48.102;-1.652;2023-04-21T11:58:15;100579.56;;;16.05;44.05
39949;BME280;29070;48.102;-1.652;2023-04-21T12:03:18;100568.72;;;16.47;43.86
39949;BME280;29070;48.102;-1.652;2023-04-21T12:08:18;100571.91;;;16.95;43.56
39949;BME280;29070;48.102;-1.652;2023-04-21T12:13:23;100560.09;;;17.20;42.81
39949;BME280;29070;48.102;-1.652;2023-04-21T12:18:26;100556.78;;;17.68;42.82
39949;BME280;29070;48.102;-1.652;2023-04-21T12:23:27;100556.31;;;17.94;41.99
39949;BME280;29070;48.102;-1.652;2023-04-21T12:28:28;100539.91;;;18.24;42.14
39949;BME280;29070;48.102;-1.652;2023-04-21T12:33:28;100536.03;;;18.32;41.55
39949;BME280;29070;48.102;-1.652;2023-04-21T12:38:29;100536.16;;;18.79;41.64
39949;BME280;29070;48.102;-1.652;2023-04-21T12:43:29;100535.56;;;18.99;40.78
39949;BME280;29070;48.102;-1.652;2023-04-21T12:48:29;100534.72;;;18.66;39.67
39949;BME280;29070;48.102;-1.652;2023-04-21T12:53:31;100532.81;;;18.57;40.06
39949;BME280;29070;48.102;-1.652;2023-04-21T12:58:31;100530.69;;;18.59;39.58
39949;BME280;29070;48.102;-1.652;2023-04-21T13:03:31;100528.53;;;18.56;39.10
39949;BME280;29070;48.102;-1.652;2023-04-21T13:08:32;100528.72;;;18.49;38.84
39949;BME280;29070;48.102;-1.652;2023-04-21T13:13:32;100522.38;;;18.50;39.03
39949;BME280;29070;48.102;-1.652;2023-04-21T13:18:33;100525.47;;;18.42;38.46
39949;BME280;29070;48.102;-1.652;2023-04-21T13:23:34;100511.25;;;18.26;38.14
39949;BME280;29070;48.102;-1.652;2023-04-21T13:28:34;100508.16;;;18.34;38.42
39949;BME280;29070;48.102;-1.652;2023-04-21T13:33:36;100499.63;;;18.32;38.31
39949;BME280;29070;48.102;-1.652;2023-04-21T13:38:36;100482.50;;;18.50;38.30
39949;BME280;29070;48.102;-1.652;2023-04-21T13:43:39;100475.97;;;18.63;38.06
39949;BME280;29070;48.102;-1.652;2023-04-21T13:48:40;100475.97;;;18.63;37.94
39949;BME280;29070;48.102;-1.652;2023-04-21T13:53:40;100480.69;;;18.56;37.71
39949;BME280;29070;48.102;-1.652;2023-04-21T13:58:41;100476.84;;;18.41;37.58
39949;BME280;29070;48.102;-1.652;2023-04-21T14:03:42;100464.09;;;18.11;36.79
39949;BME280;29070;48.102;-1.652;2023-04-21T14:08:42;100455.78;;;18.02;36.90
39949;BME280;29070;48.102;-1.652;2023-04-21T14:13:42;100448.69;;;18.13;37.05
39949;BME280;29070;48.102;-1.652;2023-04-21T14:18:43;100435.50;;;18.23;37.12
39949;BME280;29070;48.102;-1.652;2023-04-21T14:23:44;100443.13;;;18.47;37.70
39949;BME280;29070;48.102;-1.652;2023-04-21T14:28:45;100439.44;;;18.48;36.99
39949;BME280;29070;48.102;-1.652;2023-04-21T14:33:45;100438.84;;;18.41;37.17
39949;BME280;29070;48.102;-1.652;2023-04-21T14:38:46;100438.06;;;18.45;37.40
39949;BME280;29070;48.102;-1.652;2023-04-21T14:43:46;100430.66;;;18.47;37.22
39949;BME280;29070;48.102;-1.652;2023-04-21T14:48:46;100424.69;;;18.67;37.36
39949;BME280;29070;48.102;-1.652;2023-04-21T14:53:47;100411.81;;;18.92;36.98
39949;BME280;29070;48.102;-1.652;2023-04-21T14:58:47;100417.56;;;19.26;37.08
39949;BME280;29070;48.102;-1.652;2023-04-21T15:03:48;100407.00;;;19.47;36.95
39949;BME280;29070;48.102;-1.652;2023-04-21T15:08:48;100394.22;;;19.49;36.40
39949;BME280;29070;48.102;-1.652;2023-04-21T15:13:48;100394.81;;;19.71;36.13
39949;BME280;29070;48.102;-1.652;2023-04-21T15:18:49;100390.25;;;19.56;35.89
39949;BME280;29070;48.102;-1.652;2023-04-21T15:23:51;100378.78;;;19.51;35.69
39949;BME280;29070;48.102;-1.652;2023-04-21T15:28:51;100390.13;;;19.10;35.53
39949;BME280;29070;48.102;-1.652;2023-04-21T15:33:51;100386.00;;;18.82;35.97
39949;BME280;29070;48.102;-1.652;2023-04-21T15:38:52;100383.13;;;18.56;35.79
39949;BME280;29070;48.102;-1.652;2023-04-21T15:43:52;100375.06;;;18.41;35.97
39949;BME280;29070;48.102;-1.652;2023-04-21T15:48:52;100373.28;;;18.14;35.82
39949;BME280;29070;48.102;-1.652;2023-04-21T15:53:53;100372.69;;;18.07;35.96
39949;BME280;29070;48.102;-1.652;2023-04-21T15:58:53;100367.34;;;18.02;35.88
39949;BME280;29070;48.102;-1.652;2023-04-21T16:03:53;100359.91;;;18.04;36.48
39949;BME280;29070;48.102;-1.652;2023-04-21T16:08:54;100363.75;;;18.18;36.75
39949;BME280;29070;48.102;-1.652;2023-04-21T16:13:55;100352.13;;;18.24;36.51
39949;BME280;29070;48.102;-1.652;2023-04-21T16:18:55;100357.69;;;18.23;36.60
39949;BME280;29070;48.102;-1.652;2023-04-21T16:23:55;100361.16;;;18.28;36.58
39949;BME280;29070;48.102;-1.652;2023-04-21T16:28:56;100357.38;;;18.19;36.38
39949;BME280;29070;48.102;-1.652;2023-04-21T16:33:57;100351.50;;;18.12;36.46
39949;BME280;29070;48.102;-1.652;2023-04-21T16:38:58;100357.22;;;17.99;36.28
39949;BME280;29070;48.102;-1.652;2023-04-21T16:43:59;100349.91;;;17.84;36.41
39949;BME280;29070;48.102;-1.652;2023-04-21T16:48:59;100340.69;;;17.64;36.25
39949;BME280;29070;48.102;-1.652;2023-04-21T16:54:00;100333.34;;;17.44;36.67
39949;BME280;29070;48.102;-1.652;2023-04-21T16:59:00;100326.94;;;17.40;36.88
39949;BME280;29070;48.102;-1.652;2023-04-21T17:04:00;100327.66;;;17.36;37.06
39949;BME280;29070;48.102;-1.652;2023-04-21T17:09:01;100328.16;;;17.32;37.22
39949;BME280;29070;48.102;-1.652;2023-04-21T17:14:01;100321.03;;;17.11;37.13
39949;BME280;29070;48.102;-1.652;2023-04-21T17:19:01;100307.41;;;17.02;37.59
39949;BME280;29070;48.102;-1.652;2023-04-21T17:24:02;100311.13;;;17.01;37.79
39949;BME280;29070;48.102;-1.652;2023-04-21T17:29:02;100305.94;;;16.89;37.96
39949;BME280;29070;48.102;-1.652;2023-04-21T17:34:04;100316.63;;;16.77;38.08
39949;BME280;29070;48.102;-1.652;2023-04-21T17:39:04;100301.72;;;16.71;38.18
39949;BME280;29070;48.102;-1.652;2023-04-21T17:44:04;100302.72;;;16.65;38.67
39949;BME280;29070;48.102;-1.652;2023-04-21T17:49:05;100300.47;;;16.57;38.46
39949;BME280;29070;48.102;-1.652;2023-04-21T17:54:05;100300.88;;;16.49;38.59
39949;BME280;29070;48.102;-1.652;2023-04-21T17:59:07;100307.09;;;16.37;38.93
39949;BME280;29070;48.102;-1.652;2023-04-21T18:04:07;100311.28;;;16.33;38.93
39949;BME280;29070;48.102;-1.652;2023-04-21T18:09:08;100314.31;;;16.25;39.09
39949;BME280;29070;48.102;-1.652;2023-04-21T18:14:08;100316.25;;;16.13;39.11
39949;BME280;29070;48.102;-1.652;2023-04-21T18:19:09;100322.13;;;15.98;39.60
39949;BME280;29070;48.102;-1.652;2023-04-21T18:24:10;100322.19;;;15.86;39.84
39949;BME280;29070;48.102;-1.652;2023-04-21T18:29:10;100319.63;;;15.74;39.75
39949;BME280;29070;48.102;-1.652;2023-04-21T18:34:11;100307.38;;;15.56;39.89
39949;BME280;29070;48.102;-1.652;2023-04-21T18:39:13;100311.19;;;15.49;40.38
39949;BME280;29070;48.102;-1.652;2023-04-21T18:44:14;100298.03;;;15.37;40.46
39949;BME280;29070;48.102;-1.652;2023-04-21T18:49:15;100300.16;;;15.23;40.67
39949;BME280;29070;48.102;-1.652;2023-04-21T18:54:15;100299.06;;;15.07;40.70
39949;BME280;29070;48.102;-1.652;2023-04-21T18:59:16;100320.00;;;14.97;41.10
39949;BME280;29070;48.102;-1.652;2023-04-21T19:04:16;100323.25;;;14.87;41.42
39949;BME280;29070;48.102;-1.652;2023-04-21T19:09:17;100328.53;;;14.75;41.62
39949;BME280;29070;48.102;-1.652;2023-04-21T19:14:17;100328.81;;;14.62;41.99
39949;BME280;29070;48.102;-1.652;2023-04-21T19:19:17;100325.78;;;14.46;42.24
39949;BME280;29070;48.102;-1.652;2023-04-21T19:24:20;100321.88;;;14.37;42.31
39949;BME280;29070;48.102;-1.652;2023-04-21T19:29:22;100333.72;;;14.23;42.63
39949;BME280;29070;48.102;-1.652;2023-04-21T19:34:22;100337.38;;;14.10;42.74
39949;BME280;29070;48.102;-1.652;2023-04-21T19:39:22;100341.16;;;14.02;43.25
39949;BME280;29070;48.102;-1.652;2023-04-21T19:44:23;100330.91;;;13.94;43.66
39949;BME280;29070;48.102;-1.652;2023-04-21T19:49:23;100332.16;;;13.80;43.80
39949;BME280;29070;48.102;-1.652;2023-04-21T19:54:24;100325.69;;;13.64;44.35
39949;BME280;29070;48.102;-1.652;2023-04-21T19:59:24;100322.53;;;13.43;44.46
39949;BME280;29070;48.102;-1.652;2023-04-21T20:04:24;100312.19;;;13.23;44.73
39949;BME280;29070;48.102;-1.652;2023-04-21T20:09:25;100310.97;;;13.07;44.87
39949;BME280;29070;48.102;-1.652;2023-04-21T20:14:25;100308.94;;;12.91;45.06
39949;BME280;29070;48.102;-1.652;2023-04-21T20:19:25;100304.19;;;12.81;45.25
39949;BME280;29070;48.102;-1.652;2023-04-21T20:24:29;100301.25;;;12.71;45.65
39949;BME280;29070;48.102;-1.652;2023-04-21T20:29:30;100298.25;;;12.67;45.95
39949;BME280;29070;48.102;-1.652;2023-04-21T20:34:30;100293.03;;;12.61;45.95
39949;BME280;29070;48.102;-1.652;2023-04-21T20:39:31;100288.66;;;12.54;46.20
39949;BME280;29070;48.102;-1.652;2023-04-21T20:44:31;100284.88;;;12.50;46.35
39949;BME280;29070;48.102;-1.652;2023-04-21T20:49:32;100274.56;;;12.49;46.88
39949;BME280;29070;48.102;-1.652;2023-04-21T20:54:32;100279.88;;;12.42;46.83
39949;BME280;29070;48.102;-1.652;2023-04-21T20:59:33;100283.53;;;12.41;47.30
39949;BME280;29070;48.102;-1.652;2023-04-21T21:04:33;100286.44;;;12.33;47.09
39949;BME280;29070;48.102;-1.652;2023-04-21T21:09:34;100290.69;;;12.34;47.38
39949;BME280;29070;48.102;-1.652;2023-04-21T21:14:34;100291.34;;;12.29;47.59
39949;BME280;29070;48.102;-1.652;2023-04-21T21:19:35;100298.69;;;12.20;47.62
39949;BME280;29070;48.102;-1.652;2023-04-21T21:24:35;100297.09;;;12.19;47.87
39949;BME280;29070;48.102;-1.652;2023-04-21T21:29:35;100308.06;;;12.16;47.80
39949;BME280;29070;48.102;-1.652;2023-04-21T21:34:36;100310.53;;;12.11;47.88
39949;BME280;29070;48.102;-1.652;2023-04-21T21:39:36;100326.31;;;12.11;48.35
39949;BME280;29070;48.102;-1.652;2023-04-21T21:44:36;100336.84;;;12.11;48.53
39949;BME280;29070;48.102;-1.652;2023-04-21T21:49:37;100323.09;;;12.09;48.71
39949;BME280;29070;48.102;-1.652;2023-04-21T21:54:37;100314.81;;;12.06;48.69
39949;BME280;29070;48.102;-1.652;2023-04-21T21:59:38;100309.03;;;11.97;48.72
39949;BME280;29070;48.102;-1.652;2023-04-21T22:04:38;100306.22;;;11.92;48.72
39949;BME280;29070;48.102;-1.652;2023-04-21T22:09:38;100300.16;;;11.91;48.92
39949;BME280;29070;48.102;-1.652;2023-04-21T22:14:39;100302.38;;;11.88;48.90
39949;BME280;29070;48.102;-1.652;2023-04-21T22:19:39;100299.97;;;11.86;49.30
39949;BME280;29070;48.102;-1.652;2023-04-21T22:24:40;100287.22;;;11.83;49.22
39949;BME280;29070;48.102;-1.652;2023-04-21T22:29:41;100280.41;;;11.75;49.35
39949;BME280;29070;48.102;-1.652;2023-04-21T22:34:41;100288.56;;;11.67;49.32
39949;BME280;29070;48.102;-1.652;2023-04-21T22:39:41;100318.28;;;11.68;50.06
39949;BME280;29070;48.102;-1.652;2023-04-21T22:44:42;100316.47;;;11.68;49.82
39949;BME280;29070;48.102;-1.652;2023-04-21T22:49:42;100319.31;;;11.67;49.83
39949;BME280;29070;48.102;-1.652;2023-04-21T22:54:42;100316.69;;;11.67;50.11
39949;BME280;29070;48.102;-1.652;2023-04-21T22:59:43;100295.06;;;11.64;50.37
39949;BME280;29070;48.102;-1.652;2023-04-21T23:04:44;100290.22;;;11.61;50.51
39949;BME280;29070;48.102;-1.652;2023-04-21T23:09:44;100294.09;;;11.59;50.51
39949;BME280;29070;48.102;-1.652;2023-04-21T23:14:45;100299.75;;;11.56;50.30
39949;BME280;29070;48.102;-1.652;2023-04-21T23:19:45;100293.47;;;11.57;50.40
39949;BME280;29070;48.102;-1.652;2023-04-21T23:24:46;100282.38;;;11.55;50.42
39949;BME280;29070;48.102;-1.652;2023-04-21T23:29:46;100250.22;;;11.53;50.56
39949;BME280;29070;48.102;-1.652;2023-04-21T23:34:46;100237.69;;;11.55;50.76
39949;BME280;29070;48.102;-1.652;2023-04-21T23:39:47;100219.13;;;11.50;50.70
39949;BME280;29070;48.102;-1.652;2023-04-21T23:44:47;100219.13;;;11.50;51.05
39949;BME280;29070;48.102;-1.652;2023-04-21T23:49:47;100217.16;;;11.45;51.00
39949;BME280;29070;48.102;-1.652;2023-04-21T23:54:48;100233.91;;;11.44;51.11
39949;BME280;29070;48.102;-1.652;2023-04-21T23:59:48;100207.44;;;11.45;51.19
